Terminal Aerodrome Forecast
Issued by NWS Riverton, WY

Home | Current Version | Previous Version | Text Only | Print | Product List | Glossary On
Versions: 1 2 3 4 5 6 7 8 9 10 11 12 13 14 15 16 17 18
000
FTUS45 KRIW 192320
TAFRIW
TAF
KRIW 192320Z 2000/2024 28020G30KT P6SM SCT050 BKN100
     FM200100 29020KT P6SM SCT100 BKN200
     FM200800 28011KT P6SM SCT100
     FM201700 22013G19KT P6SM SCT100 SCT200
     FM202000 25018G28KT P6SM SCT070 BKN200=

USA.gov is the U.S. government's official web portal to all federal, state and local government web resources and services.